Portada
METAR-TAF:

METAR-TAF

Aeroports :

Sharurah, Aràbia Saudita

latitud: 17-28N, longitud: 047-07E, altitud: 720 m

Observació

L'informe es va fer fa 32 minuts, a les 06:00 UTC
Vent 8 kt del Sud/Sud-Est
Temperatura 34°C
Humitat 13%
Pressió 1014 hPa
Visibilitat 10 km o més
Escasses núvols a una alçada de 4000 ft
Núvols disperses a una alçada de 9000 ft

METAR: OESH 080600Z 15008KT 9999 FEW040 SCT090 34/02 Q1014 NOSIG

Hora: 09:32 (06:32 UTC)

Pronòstic

L'informe es va fer fa 7 hores i 32 minuts, a les 23:00 UTC
Pronòstic vàlid del 08 a les 00 UTC al 09 a les 06 UTC
Vent 10 kt del Sud-Est
Visibilitat 10 km o més
Núvols disperses a una alçada de 4000 ft
Evolucionant progressivament
l' 08 a les 06 UTC al 08 a les 08 UTC
Vent 12 kt del Nord-Est
Evolucionant progressivament
l' 08 a les 20 UTC al 08 a les 22 UTC
Vent 10 kt del Sud

TAF: OESH 072300Z 0800/0906 14010KT 9999 SCT040 BECMG 0806/0808 04012KT BECMG 0820/0822 18010KT

Observacions i pronòstics meteorològics de més de 4000 aeroports (METAR i TAF).

Les estacions disponibles són els punts grocs i vermells al mapa.

Posi el ratolí al punt desitjat per veure el nom de l'estació.

Feu clic per veure les observacions i els pronòstics meteorològics.

Per canviar el mapa: feu clic els botons verds amb una creu de color negre per apropar; al botó verd amb un guió per allunyar la imatge; o en les fletxes verdes per a mapes adjacents.


METAR-TAF: